Time;durP1;ratioP1;P1;durP2;ratioP2;P2;SDS_P1;SDS_P2;PMS_P1;PMS_P2;Temp;Humidity;BMP_temperature;BMP_pressure;BME280_temperature;BME280_humidity;BME280_pressure;Samples;Min_cycle;Max_cycle;Signal;HPM_P1;HPM_P2
2023/06/28 00:01:10;;;;;;;7.30;2.80;;;;;;;23.99;34.68;97590.34;5093161;28;20189;-71
2023/06/28 00:03:35;;;;;;;7.77;2.77;;;;;;;24.00;34.43;97594.66;5091049;28;20272;-69
2023/06/28 00:06:01;;;;;;;4.30;2.60;;;;;;;24.04;34.75;97595.03;5088028;28;20209;-72
2023/06/28 00:08:26;;;;;;;5.27;3.00;;;;;;;24.02;34.62;97595.25;5088940;28;20247;-69
2023/06/28 00:10:52;;;;;;;11.03;2.50;;;;;;;23.99;34.66;97590.34;5092105;28;20655;-70
2023/06/28 00:13:18;;;;;;;5.70;3.70;;;;;;;23.99;34.91;97601.06;5089783;28;20590;-68
2023/06/28 00:15:44;;;;;;;5.13;3.20;;;;;;;23.96;34.63;97596.16;5093765;28;20225;-70
2023/06/28 00:18:10;;;;;;;6.20;3.57;;;;;;;23.99;34.35;97598.38;5090271;28;20426;-72
2023/06/28 00:20:35;;;;;;;7.17;4.80;;;;;;;23.97;34.35;97594.31;5097698;28;20420;-69
2023/06/28 00:23:01;;;;;;;15.37;5.90;;;;;;;23.97;34.55;97592.44;5108222;28;20205;-69
2023/06/28 00:25:26;;;;;;;5.77;4.00;;;;;;;23.97;34.10;97603.16;5102946;28;20193;-69
2023/06/28 00:27:52;;;;;;;3.40;2.40;;;;;;;23.97;34.09;97605.81;5111109;28;20197;-69
2023/06/28 00:30:17;;;;;;;4.03;3.00;;;;;;;23.95;34.36;97589.16;5097892;28;20237;-70
2023/06/28 00:32:43;;;;;;;5.43;3.43;;;;;;;23.95;34.09;97597.16;5105257;28;20631;-70
2023/06/28 00:35:08;;;;;;;2.93;2.63;;;;;;;23.94;34.51;97598.25;5089581;28;20559;-68
2023/06/28 00:37:34;;;;;;;4.03;3.00;;;;;;;23.91;34.20;97598.69;5098544;28;20304;-68
2023/06/28 00:40:00;;;;;;;5.80;2.80;;;;;;;23.90;34.39;97607.78;5094355;28;20209;-72
2023/06/28 00:42:25;;;;;;;7.70;3.33;;;;;;;23.95;34.55;97609.75;5094961;28;20189;-70
2023/06/28 00:44:50;;;;;;;7.57;4.40;;;;;;;23.90;34.28;97605.09;5089191;28;20200;-69
2023/06/28 00:47:17;;;;;;;4.23;2.63;;;;;;;23.89;34.63;97595.44;5088376;28;20258;-70
2023/06/28 00:49:43;;;;;;;8.10;4.80;;;;;;;23.89;34.52;97606.13;5069884;28;20315;-70
2023/06/28 00:52:11;;;;;;;3.90;2.70;;;;;;;23.82;34.64;97616.13;5088876;28;20435;-70
2023/06/28 00:54:36;;;;;;;3.70;2.80;;;;;;;23.75;34.54;97611.69;5073452;28;20304;-70
2023/06/28 00:57:03;;;;;;;6.63;2.50;;;;;;;23.75;34.85;97617.03;5070256;28;20901;-70
2023/06/28 00:59:29;;;;;;;5.90;2.90;;;;;;;23.76;34.65;97618.66;5092137;28;20242;-71
2023/06/28 01:01:55;;;;;;;6.73;6.03;;;;;;;23.80;34.82;97620.88;5088541;28;20460;-70
2023/06/28 01:04:20;;;;;;;7.33;3.70;;;;;;;23.80;34.54;97620.88;5087584;28;20473;-70
2023/06/28 01:06:51;;;;;;;15.80;7.40;;;;;;;23.81;34.78;97625.19;5095477;28;20734;-69
2023/06/28 01:09:22;;;;;;;5.40;4.83;;;;;;;23.82;34.98;97626.84;5088192;28;20189;-71
2023/06/28 01:11:51;;;;;;;4.97;3.40;;;;;;;23.82;34.77;97626.84;5080817;28;20432;-69
2023/06/28 01:14:18;;;;;;;5.67;2.87;;;;;;;23.81;34.89;97630.56;5069972;28;20459;-68
2023/06/28 01:16:44;;;;;;;13.50;6.17;;;;;;;23.81;34.87;97630.56;5087033;28;20464;-69
2023/06/28 01:19:13;;;;;;;6.60;3.23;;;;;;;23.77;34.81;97630.16;5085852;28;20423;-69
2023/06/28 01:21:41;;;;;;;10.63;7.13;;;;;;;23.73;34.88;97635.16;5069288;28;20496;-69
2023/06/28 01:24:10;;;;;;;6.43;2.80;;;;;;;23.70;34.91;97640.97;5070712;28;20935;-69
2023/06/28 01:26:37;;;;;;;5.10;2.70;;;;;;;23.63;35.00;97634.88;5087511;28;20531;-69
2023/06/28 01:29:03;;;;;;;6.07;2.17;;;;;;;23.60;35.21;97636.16;5070056;28;20428;-70
2023/06/28 01:31:30;;;;;;;6.47;3.23;;;;;;;23.54;35.27;97630.91;5069498;28;20432;-71
2023/06/28 01:33:56;;;;;;;5.07;2.50;;;;;;;23.45;35.65;97638.41;5092573;28;20995;-69
2023/06/28 01:36:22;;;;;;;6.43;2.40;;;;;;;23.37;36.02;97634.19;5087255;28;20475;-72
2023/06/28 01:38:48;;;;;;;5.20;2.20;;;;;;;23.34;35.92;97631.16;5092923;28;20678;-69
2023/06/28 01:41:14;;;;;;;6.30;2.30;;;;;;;23.32;36.12;97623.34;5070167;28;20617;-68
2023/06/28 01:43:40;;;;;;;2.60;2.33;;;;;;;23.31;36.42;97633.22;5070885;28;20177;-70
2023/06/28 01:46:05;;;;;;;4.53;3.53;;;;;;;23.35;36.42;97628.25;5069215;28;20240;-69
2023/06/28 01:48:31;;;;;;;8.00;3.67;;;;;;;23.37;36.34;97628.84;5086876;28;20847;-68
2023/06/28 01:50:57;;;;;;;9.03;4.40;;;;;;;23.36;36.40;97627.19;5091673;28;20180;-70
2023/06/28 01:53:22;;;;;;;5.30;3.37;;;;;;;23.35;36.50;97633.59;5092211;28;20212;-69
2023/06/28 01:55:48;;;;;;;10.93;4.27;;;;;;;23.37;36.66;97631.50;5087407;28;20217;-70
2023/06/28 01:58:13;;;;;;;6.73;3.10;;;;;;;23.35;37.28;97630.91;5086938;28;20190;-71
2023/06/28 02:00:39;;;;;;;10.87;6.00;;;;;;;23.33;37.83;97630.31;5097734;28;20200;-69
2023/06/28 02:03:04;;;;;;;11.20;4.00;;;;;;;23.34;38.22;97623.94;5087872;28;20185;-70
2023/06/28 02:05:30;;;;;;;4.80;3.50;;;;;;;23.32;39.04;97628.69;5086853;28;20204;-70
2023/06/28 02:07:56;;;;;;;8.63;4.30;;;;;;;23.31;39.41;97627.06;5091756;28;20277;-71
2023/06/28 02:10:23;;;;;;;9.23;3.10;;;;;;;23.19;39.40;97626.16;5091000;28;20523;-70
2023/06/28 02:12:48;;;;;;;4.87;2.47;;;;;;;23.12;39.69;97629.72;5098306;28;20213;-70
2023/06/28 02:15:14;;;;;;;5.80;3.90;;;;;;;23.11;40.42;97627.28;5093391;28;20651;-71
2023/06/28 02:17:39;;;;;;;7.50;3.60;;;;;;;23.08;40.64;97627.72;5092321;28;20216;-70
2023/06/28 02:20:08;;;;;;;6.40;2.10;;;;;;;23.00;41.19;97623.47;5076402;28;20201;-70
2023/06/28 02:22:33;;;;;;;3.37;2.00;;;;;;;22.90;41.71;97625.84;5087856;28;20202;-69
2023/06/28 02:24:58;;;;;;;4.40;2.50;;;;;;;22.88;41.65;97619.91;5091898;28;20440;-69
2023/06/28 02:27:24;;;;;;;4.03;2.20;;;;;;;22.85;41.75;97624.66;5090525;28;20760;-69
2023/06/28 02:29:49;;;;;;;6.07;2.53;;;;;;;22.78;41.91;97623.91;5090964;28;20677;-69
2023/06/28 02:32:15;;;;;;;4.70;2.20;;;;;;;22.77;41.74;97626.78;5091075;28;20258;-70
2023/06/28 02:34:40;;;;;;;3.40;2.07;;;;;;;22.77;41.58;97632.97;5090340;28;20229;-70
2023/06/28 02:37:06;;;;;;;4.57;2.30;;;;;;;22.74;41.97;97624.59;5083795;28;20210;-69
2023/06/28 02:39:31;;;;;;;3.70;2.60;;;;;;;22.73;42.84;97625.63;5090727;28;20276;-70
2023/06/28 02:41:57;;;;;;;8.40;2.33;;;;;;;22.72;43.32;97618.63;5092480;28;20726;-69
2023/06/28 02:44:22;;;;;;;5.97;2.47;;;;;;;22.68;43.34;97628.94;5091270;28;20600;-70
2023/06/28 02:46:47;;;;;;;3.30;2.00;;;;;;;22.43;43.70;97634.31;5098292;28;20260;-71
2023/06/28 02:49:13;;;;;;;5.13;3.00;;;;;;;22.43;43.55;97636.97;5072096;28;20254;-69
2023/06/28 02:51:38;;;;;;;3.87;2.50;;;;;;;22.42;43.35;97630.81;5091604;28;20199;-69
2023/06/28 02:54:04;;;;;;;4.27;2.20;;;;;;;22.42;42.90;97633.50;5091299;28;20209;-70
2023/06/28 02:56:29;;;;;;;6.00;2.20;;;;;;;22.42;42.58;97630.00;5087978;28;20686;-69
2023/06/28 02:58:54;;;;;;;5.73;2.47;;;;;;;22.38;42.14;97625.03;5090501;28;20296;-69
2023/06/28 03:01:20;;;;;;;8.10;2.60;;;;;;;22.38;41.88;97624.25;5095351;28;20189;-68
2023/06/28 03:03:46;;;;;;;4.07;2.40;;;;;;;22.40;41.96;97628.31;5091531;28;20880;-69
2023/06/28 03:06:12;;;;;;;7.70;2.47;;;;;;;22.40;42.06;97632.84;5093582;28;20346;-69
2023/06/28 03:08:37;;;;;;;6.17;2.97;;;;;;;22.39;41.66;97632.03;5068927;28;20435;-69
2023/06/28 03:11:03;;;;;;;3.57;2.80;;;;;;;22.44;41.92;97634.06;5100218;28;20186;-69
2023/06/28 03:13:28;;;;;;;3.30;3.00;;;;;;;22.49;41.78;97636.91;5077657;28;20209;-69
2023/06/28 03:15:54;;;;;;;4.60;3.10;;;;;;;22.56;41.83;97642.19;5053342;28;20722;-68
2023/06/28 03:18:19;;;;;;;9.67;3.60;;;;;;;22.59;41.90;97638.25;5093040;28;20185;-70
2023/06/28 03:20:44;;;;;;;5.53;3.70;;;;;;;22.60;42.08;97640.72;5088439;28;20280;-69
2023/06/28 03:23:10;;;;;;;9.13;2.57;;;;;;;22.52;42.41;97633.81;5097111;28;20255;-69
2023/06/28 03:25:35;;;;;;;6.10;3.00;;;;;;;22.57;41.91;97637.66;5089275;28;20285;-68
2023/06/28 03:28:02;;;;;;;5.87;2.83;;;;;;;22.52;42.10;97633.81;5096422;28;20185;-69
2023/06/28 03:30:27;;;;;;;10.73;3.00;;;;;;;22.51;42.15;97642.84;5088758;28;20201;-70
2023/06/28 03:32:53;;;;;;;3.43;2.40;;;;;;;22.57;41.77;97637.66;5096801;28;20528;-68
2023/06/28 03:35:18;;;;;;;5.53;2.80;;;;;;;22.51;41.51;97639.34;5088917;28;20229;-69
2023/06/28 03:37:54;;;;;;;4.70;2.53;;;;;;;22.42;nan;97635.34;5091055;28;20305;-69
2023/06/28 03:40:20;;;;;;;6.80;2.27;;;;;;;22.43;41.44;97631.63;5092915;28;20192;-68
2023/06/28 03:42:47;;;;;;;6.30;2.43;;;;;;;22.41;42.00;97631.84;5094441;28;20435;-68
2023/06/28 03:45:13;;;;;;;10.07;2.40;;;;;;;22.34;41.35;97628.38;5089435;28;20832;-68
2023/06/28 03:47:39;;;;;;;4.20;2.47;;;;;;;22.37;41.69;97633.28;5091411;28;21007;-68
2023/06/28 03:50:05;;;;;;;4.03;2.80;;;;;;;22.29;41.44;97628.22;5089751;28;20521;-70
2023/06/28 03:52:30;;;;;;;6.80;2.50;;;;;;;22.18;41.29;97629.75;5092397;28;20213;-69
2023/06/28 03:54:56;;;;;;;7.57;2.70;;;;;;;22.08;41.54;97627.53;5096752;28;20525;-69
2023/06/28 03:57:21;;;;;;;2.93;2.17;;;;;;;21.98;41.85;97625.38;5092898;28;20233;-70
2023/06/28 03:59:47;;;;;;;5.60;2.80;;;;;;;21.87;41.99;97623.38;5106113;28;20279;-68
2023/06/28 04:02:13;;;;;;;4.33;2.40;;;;;;;21.86;42.35;97622.56;5094899;28;20185;-70
2023/06/28 04:04:39;;;;;;;6.13;2.73;;;;;;;21.83;42.22;97622.97;5091959;28;20282;-68
2023/06/28 04:07:05;;;;;;;6.00;2.50;;;;;;;21.75;42.50;97623.25;5092375;28;20498;-69
2023/06/28 04:09:30;;;;;;;5.63;2.73;;;;;;;21.59;42.58;97622.72;5091370;28;20940;-70
2023/06/28 04:11:56;;;;;;;5.23;2.67;;;;;;;21.72;42.72;97623.66;5092044;28;20192;-73
2023/06/28 04:14:25;;;;;;;4.83;2.53;;;;;;;21.74;42.76;97627.75;5096725;28;20206;-69
2023/06/28 04:16:51;;;;;;;5.50;2.20;;;;;;;21.82;42.84;97626.69;5087664;28;20331;-71
2023/06/28 04:19:17;;;;;;;7.70;2.40;;;;;;;21.84;43.04;97621.94;5088257;28;20432;-69
2023/06/28 04:21:42;;;;;;;6.60;2.60;;;;;;;21.83;42.46;97619.50;5077513;28;20442;-69
2023/06/28 04:24:08;;;;;;;6.07;2.60;;;;;;;21.86;42.63;97627.91;5092543;28;20220;-69
2023/06/28 04:26:33;;;;;;;8.73;2.50;;;;;;;21.88;42.44;97625.00;5094836;28;20704;-70
2023/06/28 04:28:59;;;;;;;3.77;2.63;;;;;;;21.97;42.14;97623.75;5087277;28;20193;-69
2023/06/28 04:31:25;;;;;;;4.63;2.30;;;;;;;21.99;42.31;97632.31;5087837;28;20292;-70
2023/06/28 04:33:51;;;;;;;6.97;2.67;;;;;;;21.92;42.02;97628.88;5087296;28;20209;-69
2023/06/28 04:36:21;;;;;;;3.20;2.23;;;;;;;21.92;42.14;97627.06;5087846;28;20496;-71
2023/06/28 04:38:55;;;;;;;7.70;2.00;;;;;;;21.96;41.72;97627.44;5087264;28;20460;-70
2023/06/28 04:41:27;;;;;;;5.27;2.80;;;;;;;22.07;42.07;97629.41;5091528;28;20522;-69
2023/06/28 04:43:57;;;;;;;7.60;2.60;;;;;;;22.09;42.07;97632.69;5089735;28;20427;-69
2023/06/28 04:46:26;;;;;;;8.40;2.73;;;;;;;22.15;42.14;97631.00;5087196;28;20837;-69
2023/06/28 04:48:52;;;;;;;6.63;2.47;;;;;;;22.15;41.92;97630.16;5087685;28;20531;-70
2023/06/28 04:51:19;;;;;;;2.47;2.20;;;;;;;22.18;41.70;97630.53;5089960;28;20436;-69
2023/06/28 04:53:46;;;;;;;5.80;2.73;;;;;;;22.16;41.69;97637.97;5086868;28;20512;-69
2023/06/28 04:56:11;;;;;;;7.30;2.60;;;;;;;22.19;41.71;97637.50;5097229;28;20542;-69
2023/06/28 04:58:37;;;;;;;3.80;2.63;;;;;;;22.19;41.94;97636.72;5085237;28;20901;-69
2023/06/28 05:01:05;;;;;;;9.37;3.00;;;;;;;22.20;41.73;97644.50;5085590;28;20690;-68
2023/06/28 05:03:31;;;;;;;6.80;2.57;;;;;;;22.21;41.89;97640.78;5084322;28;20423;-71
2023/06/28 05:05:56;;;;;;;12.07;2.30;;;;;;;22.28;42.07;97643.41;5084252;28;20514;-69
2023/06/28 05:08:22;;;;;;;2.60;1.80;;;;;;;22.27;41.85;97639.09;5092267;28;20348;-68
2023/06/28 05:10:47;;;;;;;6.33;2.60;;;;;;;22.23;42.38;97641.41;5090343;28;20188;-71
2023/06/28 05:13:13;;;;;;;5.03;2.70;;;;;;;22.25;42.84;97641.16;5095457;28;20213;-71
2023/06/28 05:15:38;;;;;;;6.53;2.60;;;;;;;22.28;42.61;97637.28;5095669;28;20281;-67
2023/06/28 05:18:04;;;;;;;3.47;2.40;;;;;;;22.35;42.23;97640.69;5089616;28;20217;-71
2023/06/28 05:20:31;;;;;;;4.27;2.30;;;;;;;22.39;42.06;97639.22;5092050;28;20234;-69
2023/06/28 05:23:16;;;;;;;5.07;2.33;;;;;;;22.42;42.63;97638.84;5087194;28;20208;-69
2023/06/28 05:25:43;;;;;;;6.13;2.80;;;;;;;22.46;42.24;97636.53;5099165;28;20457;-69
2023/06/28 05:28:10;;;;;;;9.97;2.90;;;;;;;22.47;42.24;97643.50;5091580;28;20432;-70
2023/06/28 05:30:35;;;;;;;3.27;2.60;;;;;;;22.44;41.31;97638.59;5089102;28;20888;-71
2023/06/28 05:33:02;;;;;;;6.63;2.37;;;;;;;22.47;41.08;97644.31;5084823;28;20547;-70
2023/06/28 05:35:31;;;;;;;6.73;2.80;;;;;;;22.47;41.52;97636.31;5090423;28;20190;-69
2023/06/28 05:37:58;;;;;;;7.77;2.67;;;;;;;22.42;41.41;97640.66;5068856;28;20518;-68
2023/06/28 05:40:23;;;;;;;4.30;2.30;;;;;;;22.44;41.13;97634.06;5069771;28;21168;-68
2023/06/28 05:42:49;;;;;;;5.87;2.50;;;;;;;22.48;41.76;97635.28;5090934;28;20443;-70
2023/06/28 05:45:14;;;;;;;5.97;2.20;;;;;;;22.47;41.98;97636.31;5084858;28;20702;-69
2023/06/28 05:47:40;;;;;;;6.03;2.47;;;;;;;22.59;41.82;97635.59;5086548;28;20620;-68
2023/06/28 05:50:06;;;;;;;4.53;2.30;;;;;;;22.66;41.67;97639.84;5086289;28;20192;-68
2023/06/28 05:52:31;;;;;;;8.10;2.80;;;;;;;22.69;40.83;97630.56;5086965;28;20193;-69
2023/06/28 05:54:56;;;;;;;4.80;2.27;;;;;;;22.65;40.81;97638.19;5086938;28;20477;-69
2023/06/28 05:57:22;;;;;;;6.20;3.30;;;;;;;22.66;40.63;97626.50;5087451;28;20240;-68
2023/06/28 05:59:47;;;;;;;8.80;4.33;;;;;;;22.74;40.34;97628.06;5096170;28;20196;-71
2023/06/28 06:02:13;;;;;;;7.57;3.87;;;;;;;22.74;39.89;97630.72;5086540;28;20268;-70
2023/06/28 06:04:38;;;;;;;6.27;2.40;;;;;;;22.74;40.18;97636.06;5097019;28;20200;-69
2023/06/28 06:07:04;;;;;;;10.50;2.60;;;;;;;22.79;39.93;97632.72;5092019;28;20307;-68
2023/06/28 06:09:30;;;;;;;4.27;2.50;;;;;;;22.90;39.70;97631.19;5088755;28;20749;-69
2023/06/28 06:11:55;;;;;;;8.80;2.70;;;;;;;23.04;39.47;97630.03;5090749;28;20204;-69
2023/06/28 06:14:21;;;;;;;5.80;4.30;;;;;;;23.13;39.85;97635.88;5098403;28;20616;-68
2023/06/28 06:16:46;;;;;;;6.40;2.83;;;;;;;23.17;39.69;97629.03;5090189;28;20292;-68
2023/06/28 06:19:11;;;;;;;10.70;3.77;;;;;;;23.29;40.18;97631.84;5085960;28;20217;-70
2023/06/28 06:21:37;;;;;;;4.03;2.60;;;;;;;23.37;40.22;97622.69;5091229;28;20274;-70
2023/06/28 06:24:07;;;;;;;6.20;2.97;;;;;;;23.46;39.32;97624.81;5087487;28;20251;-70
2023/06/28 06:26:34;;;;;;;10.70;2.80;;;;;;;23.53;38.80;97629.28;5090143;28;20270;-69
2023/06/28 06:28:59;;;;;;;4.60;2.90;;;;;;;23.63;38.86;97625.00;5091087;28;20427;-67
2023/06/28 06:31:24;;;;;;;7.30;3.97;;;;;;;23.75;39.28;97633.09;5095154;28;20533;-70
2023/06/28 06:33:50;;;;;;;9.43;3.37;;;;;;;23.85;38.80;97631.72;5090724;28;20217;-68
2023/06/28 06:36:15;;;;;;;8.40;2.90;;;;;;;23.90;38.18;97629.19;5093110;28;20210;-69
2023/06/28 06:38:41;;;;;;;4.23;2.23;;;;;;;23.97;37.67;97635.25;5088518;28;20284;-70
2023/06/28 06:41:06;;;;;;;6.83;2.60;;;;;;;24.02;37.98;97627.38;5093829;28;20684;-69
2023/06/28 06:43:32;;;;;;;9.07;2.70;;;;;;;24.10;37.72;97630.75;5093691;28;20285;-68
2023/06/28 06:45:57;;;;;;;6.53;2.73;;;;;;;24.16;37.44;97638.69;5089400;28;20241;-71
2023/06/28 06:48:23;;;;;;;4.83;2.40;;;;;;;24.19;37.37;97637.44;5087219;28;20219;-68
2023/06/28 06:50:49;;;;;;;9.67;2.60;;;;;;;24.27;36.49;97639.78;5089122;28;20194;-70
2023/06/28 06:53:14;;;;;;;10.17;2.50;;;;;;;24.33;36.50;97640.72;5091075;28;20263;-71
2023/06/28 06:55:40;;;;;;;6.70;2.13;;;;;;;24.34;36.62;97634.31;5090156;28;20921;-70
2023/06/28 06:58:05;;;;;;;5.43;2.40;;;;;;;24.38;37.17;97632.81;5096826;28;20285;-70
2023/06/28 07:00:31;;;;;;;5.60;2.20;;;;;;;24.44;36.79;97631.88;5090026;28;20280;-71
2023/06/28 07:02:56;;;;;;;4.40;2.23;;;;;;;24.51;36.86;97634.44;5091724;28;20189;-68
2023/06/28 07:05:22;;;;;;;3.30;2.30;;;;;;;24.61;36.08;97637.34;5094687;28;20285;-68
2023/06/28 07:07:47;;;;;;;4.80;2.13;;;;;;;24.71;35.98;97638.66;5091668;28;20297;-68
2023/06/28 07:10:13;;;;;;;8.80;2.20;;;;;;;24.77;36.11;97638.53;5095479;28;20197;-68
2023/06/28 07:12:38;;;;;;;3.93;1.90;;;;;;;24.83;35.70;97632.25;5091014;28;20185;-67
2023/06/28 07:15:04;;;;;;;7.10;2.17;;;;;;;24.85;36.25;97634.69;5098082;28;20264;-69
2023/06/28 07:17:30;;;;;;;4.40;2.13;;;;;;;24.90;35.47;97637.50;5087374;28;20690;-69
2023/06/28 07:19:56;;;;;;;7.50;2.50;;;;;;;24.96;35.34;97635.75;5089098;28;20197;-67
2023/06/28 07:22:21;;;;;;;2.90;1.80;;;;;;;25.02;35.31;97636.66;5089563;28;20462;-71
2023/06/28 07:24:47;;;;;;;4.97;1.90;;;;;;;24.91;35.52;97639.13;5094159;28;20725;-71
2023/06/28 07:27:12;;;;;;;4.60;2.20;;;;;;;24.87;35.45;97639.84;5088926;28;20629;-70
2023/06/28 07:29:38;;;;;;;7.63;2.30;;;;;;;24.87;35.66;97643.31;5088737;28;20248;-68
2023/06/28 07:32:04;;;;;;;4.50;1.93;;;;;;;24.82;34.58;97645.91;5087802;28;20189;-68
2023/06/28 07:34:30;;;;;;;4.07;2.00;;;;;;;24.82;34.70;97648.59;5088517;28;20471;-68
2023/06/28 07:36:55;;;;;;;6.53;2.20;;;;;;;24.86;35.04;97657.75;5087410;28;20237;-68
2023/06/28 07:39:20;;;;;;;6.93;2.30;;;;;;;24.80;35.76;97654.16;5088408;28;20273;-68
2023/06/28 07:41:46;;;;;;;6.77;2.30;;;;;;;24.83;35.79;97652.88;5093723;28;20609;-69
2023/06/28 07:44:11;;;;;;;6.70;2.40;;;;;;;24.83;35.50;97651.03;5089542;28;20213;-69
2023/06/28 07:46:37;;;;;;;5.40;2.30;;;;;;;24.75;35.52;97653.22;5089670;28;20213;-68
2023/06/28 07:49:02;;;;;;;7.13;2.73;;;;;;;24.73;35.45;97653.47;5091234;28;20186;-69
2023/06/28 07:51:28;;;;;;;6.40;2.50;;;;;;;24.75;35.73;97651.38;5096532;28;20702;-67
2023/06/28 07:53:53;;;;;;;6.27;2.17;;;;;;;24.73;35.96;97658.84;5088200;28;20625;-67
2023/06/28 07:56:19;;;;;;;12.27;2.27;;;;;;;24.72;35.63;97659.03;5093386;28;20266;-70
2023/06/28 07:58:45;;;;;;;7.97;2.40;;;;;;;24.74;35.40;97659.63;5092909;28;20197;-68
2023/06/28 08:01:10;;;;;;;3.60;2.17;;;;;;;24.74;35.61;97656.94;5093674;28;20328;-68
2023/06/28 08:03:36;;;;;;;3.40;1.90;;;;;;;24.78;35.71;97658.13;5095072;28;20207;-68
2023/06/28 08:06:01;;;;;;;6.67;2.37;;;;;;;24.77;35.28;97656.50;5087975;28;20260;-70
2023/06/28 08:08:27;;;;;;;7.80;2.30;;;;;;;24.76;35.61;97647.63;5088777;28;20197;-67
2023/06/28 08:10:52;;;;;;;19.53;2.80;;;;;;;24.74;35.07;97652.44;5075745;28;20189;-67
2023/06/28 08:13:18;;;;;;;3.63;2.03;;;;;;;24.74;35.31;97655.09;5088479;28;20210;-68
2023/06/28 08:15:44;;;;;;;3.77;2.53;;;;;;;24.76;35.59;97654.84;5088913;28;20198;-68
2023/06/28 08:18:09;;;;;;;3.50;2.00;;;;;;;24.75;35.69;97655.91;5091096;28;20239;-68
2023/06/28 08:20:36;;;;;;;11.40;2.43;;;;;;;24.80;35.48;97661.41;5095585;28;20228;-67
2023/06/28 08:23:02;;;;;;;6.83;2.13;;;;;;;24.73;35.47;97655.31;5090053;28;20211;-67
2023/06/28 08:25:27;;;;;;;4.30;2.33;;;;;;;24.80;35.14;97648.78;5094885;28;20477;-66
2023/06/28 08:27:53;;;;;;;6.90;2.40;;;;;;;24.88;35.25;97649.50;5053109;28;20452;-68
2023/06/28 08:30:18;;;;;;;4.37;2.20;;;;;;;24.93;34.79;97657.66;5094231;28;20193;-69
2023/06/28 08:32:45;;;;;;;4.40;2.00;;;;;;;25.00;35.02;97653.78;5089062;28;20657;-67
2023/06/28 08:35:10;;;;;;;3.80;2.20;;;;;;;25.08;34.49;97658.00;5069556;28;20981;-68
2023/06/28 08:37:36;;;;;;;2.10;1.70;;;;;;;25.10;34.93;97653.22;5092426;28;20486;-68
2023/06/28 08:40:04;;;;;;;10.70;2.47;;;;;;;25.16;34.42;97659.50;5088828;28;20871;-68
2023/06/28 08:42:29;;;;;;;5.03;2.10;;;;;;;25.02;34.71;97650.06;5092168;28;20212;-69
2023/06/28 08:44:56;;;;;;;3.20;1.97;;;;;;;24.97;34.77;97651.56;5072410;28;20436;-68
2023/06/28 08:47:21;;;;;;;14.73;9.80;;;;;;;25.03;34.45;97649.81;5088990;28;20205;-67
2023/06/28 08:49:47;;;;;;;6.17;3.60;;;;;;;25.06;34.81;97649.34;5070578;28;20561;-68
2023/06/28 08:52:14;;;;;;;4.73;3.03;;;;;;;25.12;35.02;97650.28;5069827;28;20205;-69
2023/06/28 08:54:41;;;;;;;9.60;5.37;;;;;;;25.15;34.20;97649.81;5088376;28;21783;-68
2023/06/28 08:57:07;;;;;;;4.50;2.20;;;;;;;25.07;33.68;97650.19;5088790;28;20450;-67
2023/06/28 08:59:32;;;;;;;9.33;2.70;;;;;;;25.10;34.22;97647.00;5089690;28;20427;-68
2023/06/28 09:01:59;;;;;;;8.13;4.23;;;;;;;25.22;33.99;97644.31;5071721;28;20188;-68
2023/06/28 09:04:29;;;;;;;6.10;3.47;;;;;;;25.25;34.06;97643.88;5091852;28;20291;-67
2023/06/28 09:06:55;;;;;;;10.40;2.30;;;;;;;25.38;34.19;97638.22;5077744;28;20797;-68
2023/06/28 09:09:21;;;;;;;7.40;4.20;;;;;;;25.47;33.65;97641.38;5087864;28;20451;-69
2023/06/28 09:11:47;;;;;;;9.37;6.63;;;;;;;25.51;33.43;97639.03;5092007;28;20446;-67
2023/06/28 09:14:12;;;;;;;5.33;2.30;;;;;;;25.59;33.48;97647.50;5075164;28;20238;-68
2023/06/28 09:16:38;;;;;;;6.30;2.80;;;;;;;25.52;33.67;97644.16;5087862;28;20304;-67
2023/06/28 09:19:04;;;;;;;9.50;2.50;;;;;;;25.63;33.54;97647.03;5087766;28;20228;-67
2023/06/28 09:21:31;;;;;;;4.90;1.97;;;;;;;25.82;33.56;97643.13;5087946;28;20226;-68
2023/06/28 09:23:57;;;;;;;5.40;1.70;;;;;;;25.99;33.37;97643.16;5053064;28;20182;-69
2023/06/28 09:26:33;;;;;;;7.77;2.63;;;;;;;26.15;33.08;97649.63;5087266;28;21033;-68
2023/06/28 09:29:00;;;;;;;8.43;2.20;;;;;;;26.28;32.72;97643.09;5087891;28;20570;-70
2023/06/28 09:31:30;;;;;;;12.67;2.30;;;;;;;26.37;32.86;97643.53;5086522;28;20440;-68
2023/06/28 09:33:55;;;;;;;5.73;1.70;;;;;;;26.48;32.80;97639.13;5091256;28;20471;-69
2023/06/28 09:36:22;;;;;;;6.17;2.03;;;;;;;26.62;32.57;97637.75;5087814;28;20527;-69
2023/06/28 09:38:48;;;;;;;11.43;2.10;;;;;;;26.78;32.45;97635.25;5088932;28;20193;-70
2023/06/28 09:41:14;;;;;;;4.80;2.37;;;;;;;26.98;32.13;97626.69;5070289;28;20415;-70
2023/06/28 09:43:41;;;;;;;4.30;2.50;;;;;;;27.21;31.17;97635.63;5088331;28;20901;-68
2023/06/28 09:46:17;;;;;;;13.73;8.03;;;;;;;27.28;30.58;97626.25;5086509;28;20216;-69
2023/06/28 09:48:52;;;;;;;24.40;20.17;;;;;;;27.41;30.91;97624.25;5082868;28;20853;-69
2023/06/28 09:51:18;;;;;;;7.60;4.37;;;;;;;27.55;30.78;97620.16;5087159;28;20427;-70
2023/06/28 09:53:56;;;;;;;5.00;2.40;;;;;;;27.50;30.20;97627.34;5085427;28;20525;-69
2023/06/28 09:56:34;;;;;;;8.10;3.17;;;;;;;27.69;30.48;97625.97;5085645;28;20447;-69
2023/06/28 09:59:02;;;;;;;5.73;2.17;;;;;;;27.84;30.66;97627.19;5086706;28;20442;-69
2023/06/28 10:01:28;;;;;;;6.53;2.80;;;;;;;28.01;30.00;97625.19;5068508;28;20959;-69
2023/06/28 10:03:53;;;;;;;5.27;1.97;;;;;;;28.00;29.76;97620.06;5086833;28;20431;-70
2023/06/28 10:06:19;;;;;;;7.60;2.37;;;;;;;28.24;29.69;97625.94;5068305;28;20213;-69
2023/06/28 10:08:45;;;;;;;7.90;2.30;;;;;;;28.47;29.70;97629.38;5086926;28;20220;-69
2023/06/28 10:11:15;;;;;;;12.83;8.20;;;;;;;28.59;29.39;97624.59;5074801;28;20930;-69
2023/06/28 10:13:42;;;;;;;7.17;3.40;;;;;;;28.72;29.79;97619.81;5093560;28;20220;-69
2023/06/28 10:16:15;;;;;;;9.00;5.13;;;;;;;28.81;29.28;97624.47;5076837;28;20819;-68
2023/06/28 10:18:44;;;;;;;3.50;2.60;;;;;;;28.68;28.60;97619.50;5069542;28;20431;-68
2023/06/28 10:21:13;;;;;;;6.10;2.43;;;;;;;28.72;28.75;97614.44;5087004;28;20494;-69
2023/06/28 10:23:40;;;;;;;7.33;2.80;;;;;;;29.02;28.48;97624.59;5093896;28;20472;-69
2023/06/28 10:26:06;;;;;;;3.93;2.67;;;;;;;29.35;28.03;97616.41;5093042;28;20944;-69
2023/06/28 10:28:32;;;;;;;6.13;2.27;;;;;;;29.63;27.82;97607.03;5087426;28;20521;-67
2023/06/28 10:30:58;;;;;;;2.53;1.70;;;;;;;29.89;27.39;97610.56;5086779;28;20287;-69
2023/06/28 10:33:25;;;;;;;10.90;2.27;;;;;;;29.86;26.99;97610.31;5100010;28;20458;-70
2023/06/28 10:35:50;;;;;;;4.40;2.00;;;;;;;30.07;26.75;97605.75;5086960;28;20190;-67
2023/06/28 10:38:16;;;;;;;4.27;2.00;;;;;;;30.33;26.06;97603.06;5085636;28;20428;-71
2023/06/28 10:40:47;;;;;;;10.17;2.00;;;;;;;30.11;26.45;97597.91;5082257;28;20193;-68
2023/06/28 10:43:23;;;;;;;5.43;2.00;;;;;;;29.84;26.52;97591.69;5072953;28;20284;-68
2023/06/28 10:45:48;;;;;;;4.87;2.97;;;;;;;29.86;26.85;97588.69;5090694;28;20526;-69
2023/06/28 10:48:21;;;;;;;3.37;2.30;;;;;;;29.84;26.78;97591.69;5071984;28;20423;-69
2023/06/28 10:50:47;;;;;;;3.33;1.70;;;;;;;29.70;26.63;97593.28;5092542;28;20200;-68
2023/06/28 10:53:37;;;;;;;7.10;3.17;;;;;;;29.97;26.89;97593.06;5092037;28;20554;-68
2023/06/28 10:56:12;;;;;;;12.13;5.20;;;;;;;30.27;26.65;97593.31;5068939;28;20530;-69
2023/06/28 10:58:43;;;;;;;2.50;1.87;;;;;;;30.45;26.26;97595.47;5090577;28;20428;-69
2023/06/28 11:01:11;;;;;;;5.67;2.23;;;;;;;30.57;25.81;97594.41;5094309;28;20518;-69
2023/06/28 11:03:43;;;;;;;4.67;1.97;;;;;;;30.16;26.17;97593.31;5090738;28;20416;-69
2023/06/28 11:06:13;;;;;;;3.37;1.43;;;;;;;30.30;26.17;97579.28;5089527;28;20439;-68
2023/06/28 11:08:41;;;;;;;3.83;2.10;;;;;;;30.54;26.79;97590.34;5095954;28;20923;-69
2023/06/28 11:11:34;;;;;;;5.03;3.63;;;;;;;30.82;26.44;97584.59;5094019;28;20854;-69
2023/06/28 11:14:25;;;;;;;7.13;5.00;;;;;;;31.05;25.34;97577.78;5088022;28;20476;-69
2023/06/28 11:16:53;;;;;;;2.77;1.70;;;;;;;31.27;25.61;97573.91;5088234;28;20451;-68
2023/06/28 11:19:22;;;;;;;4.27;1.77;;;;;;;31.41;24.95;97578.41;5089915;28;20467;-69
2023/06/28 11:21:54;;;;;;;3.97;1.93;;;;;;;31.44;24.21;97577.06;5090488;28;20481;-69
2023/06/28 11:24:39;;;;;;;3.27;1.77;;;;;;;31.43;24.29;97580.03;5090510;28;20830;-69
2023/06/28 11:27:19;;;;;;;5.87;2.40;;;;;;;31.35;24.09;97582.25;5095002;28;20867;-69
2023/06/28 11:29:57;;;;;;;7.80;5.23;;;;;;;31.10;24.46;97581.25;5090116;28;20447;-68